»·PEaware :: N7154N KBUR-KLAS

N7154N :: KBUR-KLAS

FLIGHT INFORMATION

Flight Status: Arrived
Operator: Privately registered:
United States
More flights under this callsign
Pilot: Joe F. (22359)
Aircraft: BEECH AIRCRAFT DEBONAIR BONANZA
(BE33)
More flights by this aircraft type
Origin: KBUR Bob Hope-Burbank
United States
Destination: KLAS McCarran Intl
United States
More flights between these airports :: More routes between these airports
Route: +VNY3 DAG CRESO4
File this flight plan on PilotEdge
Remarks: I-5
Altitude:
(Current/Filed)
9,000ft
Speed:
(Current/Filed)
165kts
Departed: 16-May-20 02:46 PM
Arrived: 16-May-20 04:23 PM
Distance/Time
Traveled:
193nm/1:37
Distance/Time
To Go:
Arrived

Flight Plot

Page will automatically refresh every two minutes.


Map Options




Map Legend


Flown Route
Filed Route
Departure Airport
Arrival Airport
Navaid (VOR, NDB)
Fix

Horizontal Profiles

Position Reports

Time Latitude Longitude Heading Altitude Ground
Speed
16-May-20 14:18 34.200215 -118.358844 258 721ft 0kts
16-May-20 14:19 34.200215 -118.358844 258 721ft 0kts
16-May-20 14:20 34.200215 -118.358844 258 721ft 0kts
16-May-20 14:21 34.200215 -118.358844 258 721ft 0kts
16-May-20 14:22 34.200215 -118.358844 258 721ft 0kts
16-May-20 14:23 34.200215 -118.358844 258 721ft 0kts
16-May-20 14:24 34.200215 -118.358844 258 721ft 0kts
16-May-20 14:25 34.200215 -118.358844 258 721ft 0kts
16-May-20 14:26 34.200215 -118.358844 258 721ft 0kts
16-May-20 14:27 34.200215 -118.358844 258 721ft 0kts
16-May-20 14:27 34.200215 -118.358844 258 721ft 0kts
16-May-20 14:29 34.200215 -118.358844 258 721ft 0kts
16-May-20 14:30 34.200215 -118.358844 258 721ft 0kts
16-May-20 14:30 34.200215 -118.358844 258 721ft 0kts
16-May-20 14:31 34.200215 -118.358844 258 721ft 0kts
16-May-20 14:33 34.200215 -118.358844 258 721ft 0kts
16-May-20 14:33 34.200215 -118.358844 258 721ft 0kts
16-May-20 14:34 34.200215 -118.358844 258 721ft 0kts
16-May-20 14:35 34.201425 -118.359562 343 727ft 6kts
16-May-20 14:36 34.202813 -118.359176 43 731ft 7kts
16-May-20 14:37 34.204342 -118.359426 348 736ft 6kts
16-May-20 14:38 34.205995 -118.359873 345 742ft 5kts
16-May-20 14:39 34.207557 -118.360318 346 749ft 9kts
16-May-20 14:40 34.209932 -118.360964 348 762ft 6kts
16-May-20 14:41 34.211822 -118.361293 72 768ft 0kts
16-May-20 14:42 34.211822 -118.361293 72 768ft 0kts
16-May-20 14:43 34.211822 -118.361293 72 768ft 0kts
16-May-20 14:44 34.211457 -118.360248 168 765ft 24kts
16-May-20 14:45 34.189350 -118.361058 218 1562ft 102kts
16-May-20 14:46 34.169354 -118.383567 224 2829ft 102kts
16-May-20 14:47 34.149787 -118.409304 225 3915ft 107kts
16-May-20 14:48 34.128996 -118.436444 225 4919ft 111kts
16-May-20 14:49 34.108709 -118.462762 225 5884ft 108kts
16-May-20 14:50 34.088926 -118.488268 225 6859ft 103kts
16-May-20 14:51 34.070277 -118.512218 225 7831ft 95kts
16-May-20 14:52 34.053616 -118.533754 225 8791ft 80kts
16-May-20 14:53 34.035163 -118.557295 225 9049ft 127kts
16-May-20 14:54 34.038302 -118.594615 347 9178ft 154kts
16-May-20 14:55 34.079977 -118.575865 28 9097ft 169kts
16-May-20 14:56 34.121690 -118.548406 21 9028ft 170kts
16-May-20 14:57 34.166399 -118.531203 16 9021ft 169kts
16-May-20 14:58 34.211644 -118.516207 15 9014ft 168kts
16-May-20 14:59 34.256787 -118.501548 15 9013ft 167kts
16-May-20 15:00 34.301631 -118.487012 15 9026ft 166kts
16-May-20 15:01 34.346279 -118.472519 15 9038ft 165kts
16-May-20 15:02 34.387074 -118.450425 48 9029ft 164kts
16-May-20 15:03 34.415963 -118.407664 52 9035ft 165kts
16-May-20 15:04 34.443954 -118.363720 53 9034ft 164kts
16-May-20 15:05 34.471523 -118.319792 53 9032ft 163kts
16-May-20 15:06 34.499088 -118.275837 53 9032ft 163kts
16-May-20 15:07 34.526477 -118.232103 53 9034ft 162kts
16-May-20 15:08 34.553821 -118.188384 53 9036ft 162kts
16-May-20 15:09 34.581060 -118.144771 53 9039ft 162kts
16-May-20 15:10 34.608475 -118.100709 52 9021ft 164kts
16-May-20 15:11 34.631321 -118.053907 79 9021ft 163kts
16-May-20 15:12 34.638412 -117.999615 82 9017ft 162kts
16-May-20 15:13 34.644498 -117.945303 82 9012ft 162kts
16-May-20 15:14 34.650443 -117.890978 82 9007ft 162kts
16-May-20 15:15 34.656352 -117.836600 83 9001ft 162kts
16-May-20 15:16 34.662220 -117.782239 82 9006ft 162kts
16-May-20 15:17 34.673236 -117.729083 73 9012ft 163kts
16-May-20 15:18 34.686612 -117.676545 72 9019ft 163kts
16-May-20 15:19 34.700145 -117.623684 72 9027ft 163kts
16-May-20 15:20 34.713743 -117.570443 72 9032ft 166kts
16-May-20 15:21 34.727458 -117.516807 72 9032ft 167kts
16-May-20 15:22 34.741246 -117.462701 72 9032ft 167kts
16-May-20 15:23 34.754955 -117.408780 72 9032ft 167kts
16-May-20 15:24 34.768649 -117.354808 72 9032ft 167kts
16-May-20 15:25 34.782357 -117.300666 73 9027ft 167kts
16-May-20 15:26 34.796051 -117.246572 73 9019ft 165kts
16-May-20 15:27 34.809437 -117.193399 73 9011ft 164kts
16-May-20 15:28 34.822838 -117.140118 73 9001ft 164kts
16-May-20 15:29 34.825819 -117.086362 99 8993ft 162kts
16-May-20 15:30 34.827257 -117.032233 72 8990ft 162kts
16-May-20 15:31 34.842407 -116.980384 70 8983ft 162kts
16-May-20 15:32 34.857902 -116.928801 70 8979ft 162kts
16-May-20 15:33 34.873391 -116.877150 70 8977ft 161kts
16-May-20 15:34 34.888698 -116.826025 70 8976ft 160kts
16-May-20 15:35 34.903844 -116.775346 70 8977ft 159kts
16-May-20 15:36 34.919057 -116.724464 70 8977ft 159kts
16-May-20 15:37 34.934129 -116.673905 70 8977ft 159kts
16-May-20 15:38 34.949168 -116.623327 70 8977ft 158kts
16-May-20 15:39 34.965148 -116.573322 62 8980ft 158kts
16-May-20 15:40 34.985923 -116.525903 62 8982ft 158kts
16-May-20 15:41 35.006908 -116.478612 63 8986ft 158kts
16-May-20 15:42 35.027940 -116.431236 63 8991ft 159kts
16-May-20 15:43 35.049047 -116.383601 63 8995ft 159kts
16-May-20 15:44 35.070281 -116.335577 64 8996ft 160kts
16-May-20 15:45 35.091428 -116.287746 64 8996ft 160kts
16-May-20 15:46 35.112375 -116.240303 64 8994ft 160kts
16-May-20 15:47 35.133547 -116.192283 64 8995ft 160kts
16-May-20 15:48 35.154639 -116.144377 64 8995ft 160kts
16-May-20 15:49 35.175787 -116.096279 64 8994ft 160kts
16-May-20 15:50 35.196856 -116.048291 64 8994ft 160kts
16-May-20 15:51 35.217891 -116.000312 64 8994ft 160kts
16-May-20 15:52 35.238899 -115.952327 64 8994ft 160kts
16-May-20 15:53 35.259948 -115.904177 64 8995ft 160kts
16-May-20 15:54 35.280914 -115.856140 64 8995ft 159kts
16-May-20 15:55 35.301788 -115.808250 64 8995ft 159kts
16-May-20 15:56 35.327953 -115.764572 50 8995ft 160kts
16-May-20 15:57 35.358013 -115.724259 49 8995ft 160kts
16-May-20 15:58 35.388087 -115.684100 49 8995ft 159kts
16-May-20 15:59 35.416699 -115.645991 49 9470ft 138kts
16-May-20 16:00 35.441747 -115.612545 50 10004ft 140kts
16-May-20 16:01 35.469996 -115.574633 49 10001ft 156kts
16-May-20 16:03 35.499722 -115.534816 49 9999ft 159kts
16-May-20 16:04 35.529780 -115.494530 49 9999ft 159kts
16-May-20 16:05 35.559969 -115.454014 49 9971ft 161kts
16-May-20 16:06 35.592794 -115.409805 49 9188ft 183kts
16-May-20 16:07 35.626767 -115.364139 48 8606ft 180kts
16-May-20 16:08 35.659982 -115.319358 49 8093ft 178kts
16-May-20 16:09 35.693238 -115.274504 49 7635ft 177kts
16-May-20 16:10 35.726377 -115.229747 48 7223ft 176kts
16-May-20 16:11 35.758946 -115.185734 48 6969ft 170kts
16-May-20 16:12 35.800221 -115.162977 11 6968ft 169kts
16-May-20 16:13 35.846843 -115.154066 11 6967ft 169kts
16-May-20 16:14 35.893296 -115.145235 11 6966ft 168kts
16-May-20 16:15 35.939766 -115.136425 11 6965ft 169kts
16-May-20 16:16 35.986295 -115.127598 11 6964ft 169kts
16-May-20 16:17 36.035782 -115.117886 11 6302ft 178kts
16-May-20 16:18 36.079648 -115.107457 10 5518ft 147kts
16-May-20 16:18 36.112752 -115.105653 26 5677ft 139kts
16-May-20 16:20 36.142479 -115.117112 226 4559ft 109kts
16-May-20 16:20 36.126137 -115.138085 214 3296ft 97kts
16-May-20 16:21 36.105918 -115.152742 199 2331ft 74kts
16-May-20 16:23 36.090273 -115.161840 201 2120ft 8kts
16-May-20 16:23 36.089292 -115.162903 272 2127ft 8kts
16-May-20 16:24 36.089542 -115.164263 258 2131ft 8kts
16-May-20 16:25 36.087329 -115.165888 206 2142ft 11kts
16-May-20 16:26 36.084185 -115.167659 207 2155ft 12kts
16-May-20 16:27 36.081214 -115.169969 208 2166ft 10kts
16-May-20 16:28 36.080736 -115.170443 222 2168ft 0kts
16-May-20 16:29 36.080736 -115.170443 222 2168ft 0kts
16-May-20 16:30 36.080736 -115.170443 222 2168ft 0kts
16-May-20 16:31 36.080736 -115.170443 222 2168ft 0kts
16-May-20 16:32 36.080736 -115.170443 222 2168ft 0kts
16-May-20 16:33 36.080736 -115.170443 222 2168ft 0kts
16-May-20 16:34 36.080736 -115.170443 222 2168ft 0kts
16-May-20 16:35 36.080736 -115.170443 222 2168ft 0kts
16-May-20 16:36 36.080736 -115.170443 222 2168ft 0kts

Navigation Log

Ident Type
Flight plan parsing failed, navigation log unavailable